Airfield :
LOGIN :

Register | Disclaimer

   EN    FR    IT 

 










Legend :    VFR   Marginal VFR   IFR   Intensive IFR   Very Intensive IFR
Visi :
Ceiling :
>= 8 km
>= 3000ft
5 to 8 km
1000 to 3000 ft
1500m to 5 km
500 to 1000 ft
800 to 1500m
200 to 500 ft
< 800m
< 200 ft
Symbols :   Thunderstorms  Fog  Heavy snow  Heavy precipitations  Wind > 20 kt
SIGMETs :     Misc.  Thunderstorms  Icing  Turbulence  Mountain Waves  Volcanic Ashes






- Airport Elevation : 297 ft
- IATA code : UIP


LFRQ - Quimper Pluguffan

CURRENT METAR :
  • 101930Z AUTO 01006KT 340V050 9999 SCT020 BKN026 07/04 Q1012 TEMPO 4000 SHRA BKN012 SCT020CB

EXPIRED METARs :
  • 101900Z AUTO 01008KT 340V040 9999 BKN020 BKN027 OVC033 08/05 Q1012 TEMPO 4000 SHRA BKN012 SCT020CB
  • 101830Z AUTO 01007KT 330V060 9999 BKN024 BKN042 OVC064 09/05 Q1011 TEMPO 4000 SHRA BKN012 SCT020CB
  • 101800Z AUTO 01009KT 9999 FEW031 OVC072 09/05 Q1011 TEMPO 4000 SHRA BKN012 SCT020CB
  • 101730Z AUTO 03007KT 9999 SCT027 SCT041 BKN062 10/05 Q1011 TEMPO 4000 SHRA BKN012 SCT020CB
  • 101700Z AUTO 03005KT 350V060 9999 FEW025 OVC060 10/05 Q1011 TEMPO 4000 SHRA BKN012 SCT020CB

TAF TAF LFRQ
Valid from the 10 at 18:00 until the 11 at 18:00 UTC


101700Z 1018/1118 01010KT 9999 BKN017
TEMPO 1018/1103 4000 SHRA BKN012 SCT020CB
PROB30
TEMPO 1106/1112 -SHRA SCT030TCU



MET'MAP, your aeronautical weather chart ! - Copyright ORBIFLY December 2007 - Disclaimer

ORBIFLY MET'MAP TEAM :

Programming & Development : Alexandra Zaïnal
Concept & original design : Baudouin d'Aumeries
Assistance for programming : Marc-Olivier Méhu
Technical & hardware support : Manuel Goepfert

Contact : metmap@orbifly.com




SOURCES & CREDITS :

   NOAA